Time;durP1;ratioP1;P1;durP2;ratioP2;P2;SDS_P1;SDS_P2;PMS_P1;PMS_P2;Temp;Humidity;BMP_temperature;BMP_pressure;BME280_temperature;BME280_humidity;BME280_pressure;Samples;Min_cycle;Max_cycle;Signal;HPM_P1;HPM_P2
2022/11/28 00:01:34;;;;;;;11.80;2.70;;;9.00;99.90;;;;;;4958740;28;20035;-81
2022/11/28 00:04:01;;;;;;;12.65;2.10;;;8.90;99.90;;;;;;4961550;28;20031;-81
2022/11/28 00:06:27;;;;;;;11.48;2.25;;;8.90;99.90;;;;;;4947301;28;20035;-81
2022/11/28 00:08:53;;;;;;;13.82;2.72;;;8.90;99.90;;;;;;4943919;28;20031;-81
2022/11/28 00:11:19;;;;;;;15.27;3.47;;;8.90;99.90;;;;;;4958914;28;20031;-81
2022/11/28 00:13:45;;;;;;;13.48;3.13;;;8.90;99.90;;;;;;4961766;28;20691;-81
2022/11/28 00:16:16;;;;;;;15.02;2.78;;;8.90;99.90;;;;;;4953430;28;20043;-81
2022/11/28 00:18:42;;;;;;;;;;;8.90;99.90;;;;;;4963088;28;20375;-81
2022/11/28 00:21:11;;;;;;;15.85;2.92;;;8.80;99.90;;;;;;4963482;28;19922;-80
2022/11/28 00:23:37;;;;;;;13.75;2.70;;;8.80;99.90;;;;;;4960387;28;20038;-81
2022/11/28 00:26:13;;;;;;;16.30;2.10;;;8.80;99.90;;;;;;4962379;28;20034;-80
2022/11/28 00:28:39;;;;;;;5.97;1.70;;;8.70;99.90;;;;;;4961312;28;20041;-81
2022/11/28 00:31:05;;;;;;;8.20;2.13;;;8.70;99.90;;;;;;4960071;28;20035;-81
2022/11/28 00:33:32;;;;;;;6.13;1.48;;;8.60;99.90;;;;;;4964851;28;20031;-81
2022/11/28 00:36:02;;;;;;;8.68;1.70;;;8.60;99.90;;;;;;4965186;28;20039;-81
2022/11/28 00:38:28;;;;;;;11.75;1.70;;;8.60;99.90;;;;;;4963096;28;20506;-79
2022/11/28 00:41:08;;;;;;;9.38;2.15;;;8.50;99.90;;;;;;4962153;28;20439;-80
2022/11/28 00:43:34;;;;;;;17.17;3.13;;;8.50;99.90;;;;;;4965580;28;20382;-80
2022/11/28 00:46:01;;;;;;;17.45;2.53;;;8.50;99.90;;;;;;4965404;28;20058;-80
2022/11/28 00:48:27;;;;;;;6.53;1.95;;;8.50;99.90;;;;;;4966298;28;20019;-80
2022/11/28 00:50:53;;;;;;;7.80;1.48;;;8.40;99.90;;;;;;4965247;28;20084;-81
2022/11/28 00:53:19;;;;;;;10.95;2.80;;;8.40;99.90;;;;;;4964388;28;20027;-80
2022/11/28 00:55:45;;;;;;;8.98;2.00;;;8.40;99.90;;;;;;4951902;28;20046;-80
2022/11/28 00:58:10;;;;;;;7.57;1.35;;;8.30;99.90;;;;;;4960354;28;20453;-80
2022/11/28 01:00:36;;;;;;;17.20;2.40;;;8.30;99.90;;;;;;4959359;28;20107;-80
2022/11/28 01:03:02;;;;;;;16.75;1.42;;;8.20;99.90;;;;;;4949406;28;20483;-80
2022/11/28 01:05:28;;;;;;;4.20;1.05;;;8.20;99.90;;;;;;4963107;28;20107;-80
2022/11/28 01:07:54;;;;;;;11.27;1.63;;;8.10;99.90;;;;;;4957924;28;20049;-80
2022/11/28 01:10:20;;;;;;;3.60;1.48;;;8.00;99.90;;;;;;4957426;28;20027;-80
2022/11/28 01:12:45;;;;;;;4.78;1.98;;;7.90;99.90;;;;;;4977297;28;20034;-80
2022/11/28 01:15:12;;;;;;;4.68;1.45;;;7.80;99.90;;;;;;4964286;28;20039;-80
2022/11/28 01:17:38;;;;;;;3.47;1.92;;;7.80;99.90;;;;;;4958907;28;20030;-80
2022/11/28 01:20:07;;;;;;;8.00;2.28;;;7.80;99.90;;;;;;4943873;28;20514;-80
2022/11/28 01:22:33;;;;;;;8.55;2.20;;;7.80;99.90;;;;;;4965050;28;20034;-80
2022/11/28 01:24:58;;;;;;;20.00;3.80;;;7.70;99.90;;;;;;4963742;28;20061;-80
2022/11/28 01:27:24;;;;;;;13.93;2.75;;;7.70;99.90;;;;;;4958692;28;20043;-80
2022/11/28 01:29:50;;;;;;;6.35;2.20;;;7.60;99.90;;;;;;4958995;28;20650;-81
2022/11/28 01:32:15;;;;;;;8.48;2.10;;;7.60;99.90;;;;;;4971131;28;20034;-80
2022/11/28 01:34:41;;;;;;;3.88;2.35;;;7.60;99.90;;;;;;4963931;28;20039;-80
2022/11/28 01:37:07;;;;;;;5.35;2.50;;;7.60;99.90;;;;;;4960690;28;20027;-81
2022/11/28 01:39:32;;;;;;;7.15;2.28;;;7.60;99.90;;;;;;4962511;28;20665;-80
2022/11/28 01:41:58;;;;;;;16.83;3.10;;;7.60;99.90;;;;;;4967157;28;20114;-81
2022/11/28 01:44:23;;;;;;;8.45;2.92;;;7.60;99.90;;;;;;4962091;28;20105;-80
2022/11/28 01:46:49;;;;;;;10.00;2.30;;;7.50;99.90;;;;;;4965866;28;20038;-81
2022/11/28 01:49:47;;;;;;;6.18;1.75;;;7.50;99.90;;;;;;4965695;28;20926;-80
2022/11/28 01:52:15;;;;;;;8.18;2.78;;;7.50;99.90;;;;;;4959282;28;20053;-81
2022/11/28 01:54:45;;;;;;;8.05;2.47;;;7.50;99.90;;;;;;4965666;28;20046;-81
2022/11/28 01:57:15;;;;;;;25.27;2.65;;;7.50;99.90;;;;;;4963733;28;20097;-81
2022/11/28 01:59:46;;;;;;;25.23;1.93;;;7.40;99.90;;;;;;4964734;28;20049;-80
2022/11/28 02:02:19;;;;;;;1.40;0.95;;;7.20;99.90;;;;;;4964294;28;20545;-81
2022/11/28 02:04:46;;;;;;;1.10;0.80;;;7.10;99.90;;;;;;4960615;28;20039;-80
2022/11/28 02:07:12;;;;;;;0.75;0.65;;;7.10;99.90;;;;;;4961253;28;20117;-80
2022/11/28 02:09:38;;;;;;;4.55;0.98;;;7.00;99.90;;;;;;4961133;28;20066;-80
2022/11/28 02:12:15;;;;;;;2.85;1.10;;;7.00;99.90;;;;;;4963829;28;20113;-81
2022/11/28 02:15:19;;;;;;;5.32;1.35;;;7.00;99.90;;;;;;4956187;28;20094;-80
2022/11/28 02:17:59;;;;;;;3.33;1.40;;;7.00;99.90;;;;;;4962704;28;20295;-80
2022/11/28 02:20:46;;;;;;;4.17;1.50;;;7.00;99.90;;;;;;4957103;28;20511;-80
2022/11/28 02:23:16;;;;;;;2.30;1.50;;;7.00;99.90;;;;;;4970234;28;20486;-81
2022/11/28 02:25:57;;;;;;;4.63;1.73;;;7.00;99.90;;;;;;4962067;28;20418;-80
2022/11/28 02:28:46;;;;;;;4.93;1.98;;;7.00;99.90;;;;;;4957586;28;20045;-80
2022/11/28 02:31:52;;;;;;;6.65;2.10;;;7.10;99.90;;;;;;4954860;28;20197;-80
2022/11/28 02:34:43;;;;;;;22.00;2.22;;;7.00;99.90;;;;;;4957108;28;21120;-81
2022/11/28 02:37:18;;;;;;;10.00;2.58;;;7.00;99.90;;;;;;4963069;28;20399;-80
2022/11/28 02:40:15;;;;;;;8.75;1.63;;;7.10;99.90;;;;;;4960459;28;20038;-80
2022/11/28 02:43:16;;;;;;;13.27;2.38;;;7.10;99.90;;;;;;4962077;28;20039;-81
2022/11/28 02:45:49;;;;;;;12.90;2.20;;;7.20;99.90;;;;;;4958520;28;20078;-81
2022/11/28 02:48:25;;;;;;;9.90;1.85;;;7.20;99.90;;;;;;4948931;28;20073;-81
2022/11/28 02:51:05;;;;;;;9.50;2.38;;;7.30;99.90;;;;;;4959817;28;20034;-81
2022/11/28 02:53:32;;;;;;;13.40;2.25;;;7.30;99.90;;;;;;4959942;28;20034;-81
2022/11/28 02:55:59;;;;;;;12.73;2.10;;;7.50;99.90;;;;;;4961562;28;20062;-81
2022/11/28 02:58:25;;;;;;;19.92;3.08;;;7.60;99.90;;;;;;4962197;28;20041;-80
2022/11/28 03:00:51;;;;;;;14.38;2.63;;;7.70;99.90;;;;;;4959137;28;20030;-81
2022/11/28 03:03:22;;;;;;;8.55;1.98;;;7.80;99.90;;;;;;4960717;28;20042;-81
2022/11/28 03:06:00;;;;;;;16.48;3.40;;;7.90;99.90;;;;;;4958287;28;20035;-80
2022/11/28 03:08:53;;;;;;;20.35;3.03;;;8.00;99.90;;;;;;4961353;28;20464;-81
2022/11/28 03:11:24;;;;;;;11.82;2.28;;;8.10;99.90;;;;;;4961421;28;20074;-81
2022/11/28 03:14:03;;;;;;;7.67;1.90;;;8.10;99.90;;;;;;4959670;28;20105;-81
2022/11/28 03:16:37;;;;;;;10.50;2.30;;;8.20;99.90;;;;;;4961658;28;20034;-80
2022/11/28 03:19:05;;;;;;;9.77;2.13;;;8.20;99.90;;;;;;4962495;28;20039;-81
2022/11/28 03:22:11;;;;;;;11.95;2.08;;;7.90;99.90;;;;;;4954063;28;20051;-80
2022/11/28 03:24:45;;;;;;;10.93;1.90;;;7.70;99.90;;;;;;4956279;28;20383;-79
2022/11/28 03:27:22;;;;;;;7.25;1.63;;;7.70;99.90;;;;;;4960107;28;20097;-80
2022/11/28 03:29:55;;;;;;;9.55;2.03;;;7.70;99.90;;;;;;4958696;28;20034;-81
2022/11/28 03:32:28;;;;;;;10.02;1.58;;;7.60;99.90;;;;;;4960838;28;20039;-80
2022/11/28 03:35:10;;;;;;;6.35;1.30;;;7.50;99.90;;;;;;4977180;28;20038;-81
2022/11/28 03:37:41;;;;;;;8.30;2.35;;;7.50;99.90;;;;;;4961868;28;20031;-80
2022/11/28 03:40:11;;;;;;;13.68;1.65;;;7.50;99.90;;;;;;4958923;28;20518;-80
2022/11/28 03:42:47;;;;;;;14.57;2.27;;;7.40;99.90;;;;;;4961034;28;20293;-81
2022/11/28 03:45:21;;;;;;;7.28;1.60;;;7.40;99.90;;;;;;4961445;28;20285;-80
2022/11/28 03:47:54;;;;;;;4.10;1.08;;;7.40;99.90;;;;;;4961361;28;20462;-80
2022/11/28 03:50:26;;;;;;;2.65;0.80;;;7.30;99.90;;;;;;4961843;28;20367;-81
2022/11/28 03:53:01;;;;;;;2.75;0.95;;;7.40;99.90;;;;;;4944042;28;20454;-81
2022/11/28 03:55:33;;;;;;;5.18;1.20;;;7.50;99.90;;;;;;4953733;28;20058;-80
2022/11/28 03:58:09;;;;;;;6.93;1.05;;;7.50;99.90;;;;;;4955317;28;20143;-81
2022/11/28 04:00:41;;;;;;;5.72;1.17;;;7.50;99.90;;;;;;4957527;28;20026;-80
2022/11/28 04:03:16;;;;;;;6.03;1.02;;;7.50;99.90;;;;;;4959819;28;20038;-80
2022/11/28 04:06:14;;;;;;;8.07;1.80;;;7.40;99.90;;;;;;4961379;28;20653;-80
2022/11/28 04:08:47;;;;;;;4.05;1.73;;;7.30;99.90;;;;;;4953409;28;20169;-80
2022/11/28 04:11:17;;;;;;;5.57;1.40;;;7.20;99.90;;;;;;4960339;28;20026;-81
2022/11/28 04:14:14;;;;;;;2.15;1.08;;;7.10;99.90;;;;;;4960046;28;20030;-80
2022/11/28 04:17:00;;;;;;;3.85;1.02;;;6.90;99.90;;;;;;4960292;28;20491;-81
2022/11/28 04:19:37;;;;;;;1.88;0.90;;;6.90;99.90;;;;;;4959111;28;20030;-80
2022/11/28 04:22:25;;;;;;;5.82;2.13;;;6.90;99.90;;;;;;4960614;28;20049;-80
2022/11/28 04:25:13;;;;;;;15.90;2.70;;;6.80;99.90;;;;;;4954069;28;20418;-80
2022/11/28 04:27:48;;;;;;;13.73;2.10;;;6.80;99.90;;;;;;4960735;28;20046;-81
2022/11/28 04:30:14;;;;;;;16.83;2.50;;;6.70;99.90;;;;;;4959265;28;20042;-80
2022/11/28 04:32:46;;;;;;;9.07;1.75;;;6.80;99.90;;;;;;4960140;28;20473;-80
2022/11/28 04:35:21;;;;;;;21.23;2.10;;;6.80;99.90;;;;;;4947944;28;20093;-80
2022/11/28 04:37:48;;;;;;;19.77;2.80;;;6.80;99.90;;;;;;4945556;28;20278;-80
2022/11/28 04:40:15;;;;;;;12.80;1.77;;;6.80;99.90;;;;;;4952403;28;20290;-81
2022/11/28 04:42:52;;;;;;;24.67;2.92;;;6.80;99.90;;;;;;4940226;28;20039;-80
2022/11/28 04:45:52;;;;;;;18.35;2.05;;;6.80;99.90;;;;;;4958379;28;20070;-81
2022/11/28 04:48:18;;;;;;;19.45;2.33;;;6.80;99.90;;;;;;4958363;28;20042;-80
2022/11/28 04:50:58;;;;;;;8.75;1.52;;;6.80;99.90;;;;;;4959284;28;20031;-81
2022/11/28 04:53:33;;;;;;;9.27;1.10;;;6.80;99.90;;;;;;4960446;28;20589;-80
2022/11/28 04:56:05;;;;;;;4.72;1.02;;;6.70;99.90;;;;;;4958384;28;20137;-80
2022/11/28 04:58:39;;;;;;;4.60;1.50;;;6.70;99.90;;;;;;4960304;28;20311;-81
2022/11/28 05:01:08;;;;;;;12.07;1.15;;;6.60;99.90;;;;;;4957271;28;20885;-80
2022/11/28 05:03:35;;;;;;;6.78;1.35;;;6.50;99.90;;;;;;4959390;28;20059;-80
2022/11/28 05:06:02;;;;;;;3.33;0.70;;;6.40;99.90;;;;;;4950238;28;20475;-80
2022/11/28 05:08:27;;;;;;;4.55;0.70;;;6.40;99.90;;;;;;4959428;28;20027;-80
2022/11/28 05:10:53;;;;;;;2.38;0.90;;;6.30;99.90;;;;;;4961022;28;20094;-80
2022/11/28 05:13:19;;;;;;;4.80;1.65;;;6.20;99.90;;;;;;4961719;28;20061;-80
2022/11/28 05:15:44;;;;;;;1.17;0.70;;;6.20;99.90;;;;;;4959215;28;20030;-80
2022/11/28 05:18:10;;;;;;;4.22;1.00;;;6.10;99.90;;;;;;4952931;28;20442;-80
2022/11/28 05:20:37;;;;;;;5.82;1.08;;;6.10;99.90;;;;;;4950873;28;20063;-80
2022/11/28 05:23:03;;;;;;;6.93;1.35;;;6.10;99.90;;;;;;4965873;28;20039;-81
2022/11/28 05:25:28;;;;;;;9.60;2.13;;;6.00;99.90;;;;;;4965199;28;20022;-80
2022/11/28 05:27:54;;;;;;;7.82;1.02;;;5.90;99.90;;;;;;4962439;28;20075;-80
2022/11/28 05:30:20;;;;;;;12.68;2.08;;;5.90;99.90;;;;;;4964237;28;20106;-80
2022/11/28 05:32:45;;;;;;;8.48;1.38;;;5.90;99.90;;;;;;4965566;28;20031;-80
2022/11/28 05:35:11;;;;;;;4.63;1.30;;;5.80;99.90;;;;;;4961881;28;20038;-80
2022/11/28 05:37:37;;;;;;;2.63;1.25;;;5.80;99.90;;;;;;4958532;28;20130;-81
2022/11/28 05:40:03;;;;;;;2.05;0.57;;;5.80;99.90;;;;;;4963282;28;20027;-79
2022/11/28 05:42:33;;;;;;;3.47;0.93;;;5.80;99.90;;;;;;4963359;28;20086;-80
2022/11/28 05:44:59;;;;;;;0.98;0.70;;;5.80;99.90;;;;;;4964728;28;20397;-80
2022/11/28 05:47:25;;;;;;;1.52;0.65;;;5.80;99.90;;;;;;4965835;28;20125;-80
2022/11/28 05:49:50;;;;;;;3.65;0.82;;;5.80;99.90;;;;;;4964409;28;20034;-80
2022/11/28 05:52:16;;;;;;;3.05;0.82;;;5.90;99.90;;;;;;4959057;28;20031;-80
2022/11/28 05:54:42;;;;;;;1.58;1.00;;;6.00;99.90;;;;;;4957166;28;20039;-82
2022/11/28 05:57:07;;;;;;;2.47;1.10;;;6.10;99.90;;;;;;4964103;28;20113;-80
2022/11/28 05:59:33;;;;;;;1.15;0.70;;;6.20;99.90;;;;;;4965697;28;20026;-81
2022/11/28 06:01:59;;;;;;;2.05;0.90;;;6.30;99.90;;;;;;4965122;28;20043;-81
2022/11/28 06:04:24;;;;;;;3.15;1.15;;;6.40;99.90;;;;;;4963369;28;20039;-82
2022/11/28 06:06:51;;;;;;;3.72;1.27;;;6.40;99.90;;;;;;4957589;28;20066;-84
2022/11/28 06:09:17;;;;;;;5.25;1.55;;;6.40;99.90;;;;;;4960045;28;20066;-82
2022/11/28 06:11:42;;;;;;;2.72;1.50;;;6.40;99.90;;;;;;4963906;28;20407;-83
2022/11/28 06:14:09;;;;;;;4.70;1.67;;;6.50;99.90;;;;;;4965038;28;20023;-83
2022/11/28 06:16:35;;;;;;;3.03;1.50;;;6.50;99.90;;;;;;4961368;28;20094;-81
2022/11/28 06:19:03;;;;;;;3.50;1.38;;;6.40;99.90;;;;;;4962008;28;20031;-82
2022/11/28 06:21:30;;;;;;;8.63;1.50;;;6.40;99.90;;;;;;4964880;28;20533;-81
2022/11/28 06:23:57;;;;;;;5.72;1.70;;;6.30;99.90;;;;;;4963237;28;20031;-81
2022/11/28 06:26:24;;;;;;;3.42;1.52;;;6.20;99.90;;;;;;4963498;28;20041;-81
2022/11/28 06:28:50;;;;;;;4.78;1.30;;;6.10;99.90;;;;;;4964362;28;20035;-81
2022/11/28 06:31:21;;;;;;;3.92;1.23;;;6.00;99.90;;;;;;4959727;28;20558;-81
2022/11/28 06:33:48;;;;;;;1.42;0.90;;;5.90;99.90;;;;;;4956029;28;20159;-81
2022/11/28 06:36:15;;;;;;;10.40;1.20;;;5.90;99.90;;;;;;4962429;28;20133;-81
2022/11/28 06:38:41;;;;;;;4.05;1.33;;;5.80;99.90;;;;;;4962894;28;20490;-81
2022/11/28 06:41:13;;;;;;;4.45;0.90;;;5.70;99.90;;;;;;4963669;28;20041;-80
2022/11/28 06:43:39;;;;;;;2.83;0.95;;;5.70;99.90;;;;;;4955161;28;20151;-80
2022/11/28 06:46:14;;;;;;;2.75;1.00;;;5.70;99.90;;;;;;4957187;28;20386;-80
2022/11/28 06:48:39;;;;;;;4.15;1.10;;;5.60;99.90;;;;;;4963976;28;20027;-80
2022/11/28 06:51:05;;;;;;;9.23;3.50;;;5.60;99.90;;;;;;4960207;28;20030;-80
2022/11/28 06:53:32;;;;;;;6.95;2.65;;;5.50;99.90;;;;;;4961701;28;20117;-80
2022/11/28 06:56:04;;;;;;;2.28;1.02;;;5.50;99.90;;;;;;4958370;28;20117;-81
2022/11/28 06:58:29;;;;;;;2.35;1.20;;;5.50;99.90;;;;;;4963967;28;20561;-80
2022/11/28 07:00:55;;;;;;;5.25;0.90;;;5.40;99.90;;;;;;4960583;28;20054;-80
2022/11/28 07:03:21;;;;;;;5.90;0.85;;;5.40;99.90;;;;;;4949408;28;20413;-81
2022/11/28 07:05:46;;;;;;;3.40;0.90;;;5.40;99.90;;;;;;4957829;28;20066;-81
2022/11/28 07:08:12;;;;;;;3.47;0.85;;;5.40;99.90;;;;;;4956387;28;20034;-81
2022/11/28 07:10:37;;;;;;;6.88;1.00;;;5.20;99.90;;;;;;4958063;28;20090;-80
2022/11/28 07:13:03;;;;;;;1.77;0.90;;;5.20;99.90;;;;;;4956850;28;20121;-80
2022/11/28 07:15:28;;;;;;;10.27;3.15;;;5.20;99.90;;;;;;4955480;28;20204;-80
2022/11/28 07:17:54;;;;;;;2.70;1.60;;;5.10;99.90;;;;;;4942163;28;20125;-80
2022/11/28 07:20:20;;;;;;;6.03;1.55;;;5.20;99.90;;;;;;4945526;28;20030;-80
2022/11/28 07:22:47;;;;;;;3.10;1.20;;;5.20;99.90;;;;;;4947324;28;20039;-80
2022/11/28 07:25:16;;;;;;;2.78;1.17;;;5.20;99.90;;;;;;4944374;28;20034;-80
2022/11/28 07:27:41;;;;;;;2.65;1.23;;;5.20;99.90;;;;;;4952051;28;20031;-76
2022/11/28 07:30:08;;;;;;;2.72;1.20;;;5.20;99.90;;;;;;4955675;28;20977;-79
2022/11/28 07:32:33;;;;;;;4.13;1.63;;;5.20;99.90;;;;;;4953825;28;20026;-80
2022/11/28 07:34:59;;;;;;;3.95;1.20;;;5.20;99.90;;;;;;4961443;28;20218;-80
2022/11/28 07:37:25;;;;;;;3.53;1.63;;;5.30;99.90;;;;;;4959836;28;20467;-79
2022/11/28 07:39:50;;;;;;;4.85;1.58;;;5.20;99.90;;;;;;4963000;28;20051;-79
2022/11/28 07:42:16;;;;;;;2.53;1.17;;;5.30;99.90;;;;;;4956927;28;20042;-79
2022/11/28 07:44:41;;;;;;;5.55;1.42;;;5.40;99.90;;;;;;4954707;28;20043;-80
2022/11/28 07:47:07;;;;;;;6.00;1.60;;;5.50;99.90;;;;;;4959663;28;20391;-81
2022/11/28 07:49:32;;;;;;;6.03;2.03;;;5.70;99.90;;;;;;4957451;28;20179;-83
2022/11/28 07:51:58;;;;;;;3.65;1.83;;;5.90;99.90;;;;;;4958301;28;20069;-82
2022/11/28 07:54:24;;;;;;;3.03;1.80;;;6.00;99.90;;;;;;4963015;28;20037;-84
2022/11/28 07:56:49;;;;;;;2.97;1.25;;;6.00;99.90;;;;;;4955158;28;20579;-83
2022/11/28 07:59:15;;;;;;;3.97;1.58;;;6.10;99.90;;;;;;4962282;28;20035;-82
2022/11/28 08:01:41;;;;;;;4.13;1.90;;;6.10;99.90;;;;;;4955185;28;20375;-83
2022/11/28 08:04:08;;;;;;;5.35;2.17;;;6.10;99.90;;;;;;4961533;28;20046;-82
2022/11/28 08:06:39;;;;;;;2.92;2.15;;;6.00;99.90;;;;;;4951845;28;20482;-84
2022/11/28 08:09:06;;;;;;;6.03;2.15;;;6.10;99.90;;;;;;4955155;28;20037;-83
2022/11/28 08:11:32;;;;;;;4.00;2.08;;;6.20;99.90;;;;;;4957853;28;20408;-83
2022/11/28 08:13:58;;;;;;;7.90;2.10;;;6.30;99.90;;;;;;4960806;28;20015;-84
2022/11/28 08:16:26;;;;;;;10.43;2.90;;;6.40;99.90;;;;;;4961455;28;20029;-83
2022/11/28 08:18:52;;;;;;;4.55;2.53;;;6.50;99.90;;;;;;4949697;28;20031;-86
2022/11/28 08:21:29;;;;;;;3.60;2.30;;;6.70;99.90;;;;;;4953674;28;20116;-83
2022/11/28 08:23:58;;;;;;;4.00;1.52;;;6.80;99.90;;;;;;4955170;28;20111;-82
2022/11/28 08:26:25;;;;;;;6.40;1.60;;;6.90;99.90;;;;;;4954543;28;20058;-81
2022/11/28 08:28:52;;;;;;;6.38;1.40;;;7.00;99.90;;;;;;4960763;28;20109;-81
2022/11/28 08:31:22;;;;;;;6.15;1.30;;;7.00;99.90;;;;;;4947495;28;20045;-81
2022/11/28 08:33:49;;;;;;;8.77;1.27;;;7.10;99.90;;;;;;4952550;28;20084;-81
2022/11/28 08:36:16;;;;;;;9.27;2.20;;;7.20;99.90;;;;;;4947791;28;20035;-81
2022/11/28 08:38:45;;;;;;;5.72;1.35;;;7.40;99.90;;;;;;4946953;28;20174;-82
2022/11/28 08:41:12;;;;;;;3.85;1.15;;;7.50;99.90;;;;;;4944012;28;20530;-81
2022/11/28 08:43:38;;;;;;;5.00;1.50;;;7.60;99.90;;;;;;4956894;28;20031;-82
2022/11/28 08:46:05;;;;;;;10.50;1.75;;;7.70;99.90;;;;;;4955161;28;20043;-81
2022/11/28 08:48:33;;;;;;;6.95;1.75;;;7.90;99.90;;;;;;4955684;28;20038;-82
2022/11/28 08:50:59;;;;;;;10.45;1.88;;;8.10;99.90;;;;;;4956698;28;20470;-81
2022/11/28 08:53:24;;;;;;;13.48;1.90;;;8.50;99.90;;;;;;4966891;28;20035;-81
2022/11/28 08:55:50;;;;;;;9.70;2.15;;;8.90;99.90;;;;;;4945327;28;20035;-82
2022/11/28 08:58:15;;;;;;;17.67;3.08;;;9.40;99.90;;;;;;4960623;28;20081;-81
2022/11/28 09:00:41;;;;;;;11.82;2.67;;;10.10;99.90;;;;;;4961788;28;20550;-81
2022/11/28 09:03:09;;;;;;;8.68;2.40;;;10.60;99.90;;;;;;4966482;28;20038;-81
2022/11/28 09:05:34;;;;;;;12.90;1.95;;;11.30;99.90;;;;;;4960946;28;20031;-81
2022/11/28 09:08:00;;;;;;;8.25;1.75;;;11.80;99.90;;;;;;4955098;28;20060;-81
2022/11/28 09:10:25;;;;;;;3.80;1.20;;;12.10;99.90;;;;;;4950699;28;20027;-81
2022/11/28 09:12:51;;;;;;;7.40;1.10;;;12.10;99.10;;;;;;4961640;28;20037;-81
2022/11/28 09:15:18;;;;;;;5.03;1.00;;;11.90;99.90;;;;;;4956530;28;20035;-81
2022/11/28 09:17:44;;;;;;;4.78;1.15;;;11.90;99.90;;;;;;4952749;28;20033;-80
2022/11/28 09:20:10;;;;;;;3.97;1.60;;;11.90;99.50;;;;;;4956578;28;20041;-81
2022/11/28 09:22:36;;;;;;;10.75;2.95;;;12.00;99.90;;;;;;4951147;28;20039;-81
2022/11/28 09:25:02;;;;;;;9.75;2.08;;;12.00;99.70;;;;;;4956892;28;20070;-81
2022/11/28 09:27:27;;;;;;;5.72;1.73;;;11.70;99.90;;;;;;4953740;28;20050;-81
2022/11/28 09:29:53;;;;;;;6.35;1.50;;;11.80;99.90;;;;;;4957017;28;20483;-81
2022/11/28 09:32:18;;;;;;;6.07;1.38;;;11.90;99.90;;;;;;4955579;28;20062;-81
2022/11/28 09:34:44;;;;;;;6.38;1.13;;;12.00;99.80;;;;;;4958377;28;20031;-81
2022/11/28 09:37:10;;;;;;;3.60;1.15;;;12.10;99.90;;;;;;4946386;29;20427;-81
2022/11/28 09:39:35;;;;;;;4.78;1.00;;;12.10;99.30;;;;;;4962652;28;20023;-81
2022/11/28 09:42:11;;;;;;;7.78;0.98;;;12.00;99.70;;;;;;4944796;28;20089;-81
2022/11/28 09:44:40;;;;;;;2.35;0.73;;;11.90;99.80;;;;;;4962089;28;20133;-81
2022/11/28 09:47:23;;;;;;;5.78;1.17;;;12.20;99.90;;;;;;4959336;28;20078;-80
2022/11/28 09:49:54;;;;;;;7.70;1.23;;;12.40;99.90;;;;;;4957572;28;20373;-81
2022/11/28 09:52:29;;;;;;;6.20;1.55;;;12.30;97.40;;;;;;4960447;28;20426;-81
2022/11/28 09:55:14;;;;;;;6.20;1.60;;;11.90;98.50;;;;;;4956706;28;20068;-81
2022/11/28 09:57:46;;;;;;;3.88;1.60;;;11.60;99.90;;;;;;4955855;28;20059;-81
2022/11/28 10:00:33;;;;;;;5.82;1.40;;;11.20;99.90;;;;;;4958630;28;20034;-81
2022/11/28 10:03:16;;;;;;;4.05;1.33;;;11.00;99.90;;;;;;4958495;28;20242;-82
2022/11/28 10:05:57;;;;;;;6.05;1.38;;;10.60;99.90;;;;;;4958394;28;20050;-80
2022/11/28 10:08:36;;;;;;;4.57;1.40;;;10.50;99.90;;;;;;4964003;28;20031;-81
2022/11/28 10:11:18;;;;;;;4.15;1.20;;;10.30;99.90;;;;;;4950840;28;20297;-81
2022/11/28 10:14:13;;;;;;;;;;;10.30;99.90;;;;;;4964368;28;20490;-81
2022/11/28 10:16:53;;;;;;;4.93;1.40;;;10.30;99.90;;;;;;4910627;28;19974;-81
2022/11/28 10:19:39;;;;;;;4.45;1.25;;;10.50;99.90;;;;;;4963496;28;20027;-80
2022/11/28 10:22:12;;;;;;;4.40;1.30;;;10.50;99.90;;;;;;4951475;28;20049;-81
2022/11/28 10:24:43;;;;;;;4.40;1.40;;;10.60;99.90;;;;;;4958231;28;20030;-81
2022/11/28 10:27:11;;;;;;;9.85;2.28;;;10.60;99.90;;;;;;4951068;28;20027;-81
2022/11/28 10:29:52;;;;;;;7.65;1.15;;;10.50;99.90;;;;;;4955053;28;20137;-81
2022/11/28 10:32:35;;;;;;;6.25;1.15;;;10.60;99.90;;;;;;4960185;28;20098;-81
2022/11/28 10:35:12;;;;;;;6.68;0.90;;;10.90;99.90;;;;;;4945841;28;20039;-81
2022/11/28 10:37:38;;;;;;;3.83;0.90;;;11.30;99.90;;;;;;4950907;28;20030;-81
2022/11/28 10:40:26;;;;;;;3.20;0.80;;;11.80;99.90;;;;;;4961939;28;20364;-82
2022/11/28 10:43:20;;;;;;;7.47;0.88;;;12.30;99.90;;;;;;4955568;28;20051;-81
2022/11/28 10:46:08;;;;;;;5.07;0.93;;;13.10;99.90;;;;;;4949817;28;20065;-81
2022/11/28 10:48:49;;;;;;;6.70;0.85;;;13.90;95.90;;;;;;4950920;28;20411;-81
2022/11/28 10:51:30;;;;;;;8.57;0.80;;;14.20;94.90;;;;;;4956405;28;20395;-81
2022/11/28 10:54:21;;;;;;;3.47;1.13;;;14.50;94.30;;;;;;4956651;28;20317;-81
2022/11/28 10:56:59;;;;;;;4.18;0.73;;;14.60;93.00;;;;;;4960776;28;20031;-81
2022/11/28 11:00:09;;;;;;;4.70;0.77;;;14.60;92.70;;;;;;4946566;28;20053;-81
2022/11/28 11:02:46;;;;;;;5.18;0.73;;;14.80;93.00;;;;;;4940475;28;20051;-81
2022/11/28 11:05:17;;;;;;;4.32;0.63;;;14.90;92.00;;;;;;4958877;28;20498;-81
2022/11/28 11:07:48;;;;;;;5.15;1.17;;;15.10;93.10;;;;;;4959828;28;20035;-81
2022/11/28 11:10:22;;;;;;;3.28;0.73;;;15.20;91.50;;;;;;4952218;28;20031;-81
2022/11/28 11:12:51;;;;;;;4.75;0.60;;;15.40;90.90;;;;;;4945142;28;20046;-81
2022/11/28 11:15:31;;;;;;;3.22;0.60;;;15.30;92.30;;;;;;4945400;28;20040;-81
2022/11/28 11:17:59;;;;;;;2.85;0.57;;;15.20;91.80;;;;;;4952724;28;20061;-81
2022/11/28 11:20:32;;;;;;;3.72;0.52;;;15.10;92.90;;;;;;4951408;28;20043;-81
2022/11/28 11:23:15;;;;;;;5.63;0.60;;;15.00;92.90;;;;;;4949583;28;20043;-80
2022/11/28 11:25:53;;;;;;;2.67;0.60;;;15.30;91.90;;;;;;4945169;28;20188;-80
2022/11/28 11:28:49;;;;;;;3.03;0.63;;;15.30;90.80;;;;;;4944415;29;20039;-80
2022/11/28 11:31:41;;;;;;;4.13;0.50;;;15.60;90.90;;;;;;4956394;28;20405;-81
2022/11/28 11:34:16;;;;;;;4.28;0.63;;;15.80;88.70;;;;;;4953674;28;20645;-79
2022/11/28 11:36:42;;;;;;;2.85;0.70;;;15.90;86.70;;;;;;4958462;28;20042;-79
2022/11/28 11:39:11;;;;;;;3.75;0.60;;;15.70;91.10;;;;;;4960243;28;20022;-79
2022/11/28 11:41:48;;;;;;;3.10;0.55;;;15.60;91.10;;;;;;4952689;28;20050;-80
2022/11/28 11:44:14;;;;;;;2.20;0.45;;;15.30;88.60;;;;;;4959086;28;20115;-79
2022/11/28 11:46:54;;;;;;;4.00;0.50;;;15.00;91.50;;;;;;4962116;28;20097;-78
2022/11/28 11:49:37;;;;;;;5.72;0.50;;;14.60;88.00;;;;;;4944153;28;20023;-79
2022/11/28 11:52:12;;;;;;;4.80;0.40;;;13.90;90.80;;;;;;4958170;28;20027;-79
2022/11/28 11:55:03;;;;;;;4.80;0.30;;;13.80;90.90;;;;;;4960082;28;20049;-78
2022/11/28 11:57:36;;;;;;;2.47;0.50;;;13.90;93.20;;;;;;4950113;28;20035;-79
2022/11/28 12:00:08;;;;;;;4.85;0.52;;;13.50;90.30;;;;;;4940942;28;20040;-78
2022/11/28 12:02:56;;;;;;;2.35;0.38;;;13.40;92.10;;;;;;4951063;28;20118;-76
2022/11/28 12:05:39;;;;;;;7.05;0.55;;;13.60;92.80;;;;;;4955245;28;20053;-79
2022/11/28 12:08:27;;;;;;;6.30;0.70;;;13.80;92.10;;;;;;4962089;28;20081;-79
2022/11/28 12:11:09;;;;;;;4.32;0.70;;;13.50;92.40;;;;;;4948676;28;20050;-79
2022/11/28 12:13:35;;;;;;;5.70;0.65;;;13.20;94.70;;;;;;4943931;29;20031;-78
2022/11/28 12:16:29;;;;;;;4.03;0.50;;;12.80;95.00;;;;;;4952240;28;20030;-79
2022/11/28 12:19:17;;;;;;;4.93;0.60;;;12.50;93.80;;;;;;4960917;28;20081;-79
2022/11/28 12:22:17;;;;;;;3.28;0.32;;;12.30;97.90;;;;;;4951497;28;20502;-79
2022/11/28 12:25:10;;;;;;;2.60;0.60;;;12.30;97.50;;;;;;4943143;28;20057;-79
2022/11/28 12:27:47;;;;;;;3.80;0.40;;;12.40;98.10;;;;;;4948474;28;20410;-80
2022/11/28 12:30:41;;;;;;;3.72;0.63;;;12.40;99.80;;;;;;4969439;28;20027;-78
2022/11/28 12:33:25;;;;;;;6.25;0.85;;;12.10;96.60;;;;;;4967506;28;20497;-79
2022/11/28 12:36:17;;;;;;;3.17;0.45;;;11.60;97.40;;;;;;4958084;28;20035;-78
2022/11/28 12:39:01;;;;;;;6.05;0.43;;;11.50;98.50;;;;;;4958755;28;20039;-79
2022/11/28 12:41:45;;;;;;;5.30;0.60;;;11.30;98.90;;;;;;4950229;29;20122;-79
2022/11/28 12:44:21;;;;;;;9.18;0.82;;;11.00;99.90;;;;;;4966587;28;20070;-80
2022/11/28 12:46:56;;;;;;;7.28;0.90;;;11.00;99.90;;;;;;4959476;28;20422;-82
2022/11/28 12:49:37;;;;;;;4.25;0.52;;;10.90;99.90;;;;;;4959485;28;20451;-86
2022/11/28 12:52:20;;;;;;;3.08;0.60;;;11.00;99.90;;;;;;4962018;28;20027;-84
2022/11/28 12:55:15;;;;;;;4.13;0.57;;;11.20;99.90;;;;;;4964687;28;20027;-86
2022/11/28 12:57:57;;;;;;;5.97;0.90;;;11.40;99.90;;;;;;4913042;28;20225;-82
2022/11/28 13:00:26;;;;;;;;;;;11.70;99.90;;;;;;4958001;28;20040;-84
2022/11/28 13:03:29;;;;;;;9.63;0.70;;;11.80;99.90;;;;;;4970488;28;19926;-84
2022/11/28 13:06:08;;;;;;;6.57;0.73;;;12.00;99.90;;;;;;4964652;28;20027;-84
2022/11/28 13:08:57;;;;;;;6.13;0.60;;;12.60;99.90;;;;;;4955122;28;20063;-86
2022/11/28 13:11:29;;;;;;;4.38;0.75;;;13.10;99.90;;;;;;4952264;28;20047;-84
2022/11/28 13:14:34;;;;;;;7.13;1.92;;;13.60;97.70;;;;;;4957494;28;20081;-84
2022/11/28 13:17:30;;;;;;;3.97;1.40;;;13.70;96.20;;;;;;4960988;28;20030;-82
2022/11/28 13:20:27;;;;;;;9.05;3.58;;;13.70;96.50;;;;;;4956658;28;20042;-83
2022/11/28 13:23:05;;;;;;;7.65;3.28;;;13.50;95.10;;;;;;4955361;28;20511;-82